createdAt,value
2023-01-07T00:00:18.491Z,9.761453
2023-01-07T00:01:19.553Z,9.762468
2023-01-07T00:02:18.481Z,9.762667
2023-01-07T00:03:18.651Z,9.762929
2023-01-07T00:04:18.496Z,9.762861
2023-01-07T00:05:18.497Z,9.763637
2023-01-07T00:06:18.422Z,9.769079
2023-01-07T00:07:18.382Z,9.776573
2023-01-07T00:08:18.385Z,9.784051
2023-01-07T00:09:18.363Z,9.798969
2023-01-07T00:10:18.349Z,9.815448
2023-01-07T00:11:18.328Z,9.827043
2023-01-07T00:12:18.334Z,9.762471
2023-01-07T00:13:18.354Z,9.762401
2023-01-07T00:14:18.331Z,9.762331
2023-01-07T00:15:18.330Z,9.762113
2023-01-07T00:16:18.338Z,9.762350
2023-01-07T00:17:18.291Z,9.762513
2023-01-07T00:18:18.276Z,9.762610
2023-01-07T00:19:18.253Z,9.762610
2023-01-07T00:20:18.350Z,9.762610
2023-01-07T00:21:18.238Z,9.762610
2023-01-07T00:22:18.233Z,9.762610
2023-01-07T00:23:18.231Z,9.762610
2023-01-07T00:24:18.928Z,9.762719
2023-01-07T00:25:18.182Z,9.762773
2023-01-07T00:26:18.201Z,9.762710
2023-01-07T00:27:18.155Z,9.762679
2023-01-07T00:28:18.161Z,9.762932
2023-01-07T00:29:18.169Z,9.762934
2023-01-07T00:30:18.170Z,9.763526
2023-01-07T00:31:18.178Z,9.762899
2023-01-07T00:32:18.156Z,9.762899
2023-01-07T00:33:18.181Z,9.762748
2023-01-07T00:34:18.101Z,9.762776
2023-01-07T00:35:18.125Z,9.763017
2023-01-07T00:36:18.088Z,9.762668
2023-01-07T00:37:18.078Z,9.763176
2023-01-07T00:38:18.093Z,9.762682
2023-01-07T00:39:18.095Z,9.762863
2023-01-07T00:40:18.079Z,9.762980
2023-01-07T00:41:18.045Z,9.762578
2023-01-07T00:42:18.029Z,9.762425
2023-01-07T00:43:18.083Z,9.762658
2023-01-07T00:44:18.020Z,9.762658
2023-01-07T00:45:18.046Z,9.762639
2023-01-07T00:46:18.082Z,9.762367
2023-01-07T00:47:17.991Z,9.762753
2023-01-07T00:48:17.999Z,9.762999
2023-01-07T00:49:17.976Z,9.762891
2023-01-07T00:50:17.944Z,9.762819
2023-01-07T00:51:17.962Z,9.762819
2023-01-07T00:52:18.039Z,9.762819
2023-01-07T00:53:17.948Z,9.762819
2023-01-07T00:54:17.913Z,9.762819
2023-01-07T00:55:17.889Z,9.762819
2023-01-07T00:56:17.916Z,9.762819
2023-01-07T00:57:17.855Z,9.762819
2023-01-07T00:58:17.926Z,9.762819
2023-01-07T00:59:17.891Z,9.762819
2023-01-07T01:00:17.874Z,9.762819
2023-01-07T01:01:17.944Z,9.762819
2023-01-07T01:02:17.881Z,9.762819
2023-01-07T01:03:17.868Z,9.762819
2023-01-07T01:04:17.817Z,9.762819
2023-01-07T01:05:17.868Z,9.762819
2023-01-07T01:06:17.839Z,9.762819
2023-01-07T01:07:17.794Z,9.762819
2023-01-07T01:08:17.860Z,9.762819
2023-01-07T01:09:17.791Z,9.762819
2023-01-07T01:10:17.732Z,9.762819
2023-01-07T01:11:17.771Z,9.762819
2023-01-07T01:12:17.751Z,9.762819
2023-01-07T01:13:18.369Z,9.762819
2023-01-07T01:14:18.732Z,9.762819
2023-01-07T01:15:17.711Z,9.762819
2023-01-07T01:16:17.773Z,9.762819
2023-01-07T01:17:17.663Z,9.762819
2023-01-07T01:18:17.698Z,9.762819
2023-01-07T01:19:17.717Z,9.762819
2023-01-07T01:20:17.704Z,9.762819
2023-01-07T01:21:17.695Z,9.762819
2023-01-07T01:22:17.668Z,9.762819
2023-01-07T01:23:17.644Z,9.762819
2023-01-07T01:24:17.714Z,9.762819
2023-01-07T01:25:17.632Z,9.762819
2023-01-07T01:26:17.609Z,9.762819
2023-01-07T01:27:17.576Z,9.762819
2023-01-07T01:28:17.571Z,9.762819
2023-01-07T01:29:17.560Z,9.762819
2023-01-07T01:30:17.564Z,9.762819
2023-01-07T01:31:17.561Z,9.762819
2023-01-07T01:32:17.523Z,9.762819
2023-01-07T01:33:17.521Z,9.762819
2023-01-07T01:34:17.502Z,9.762819
2023-01-07T01:35:17.487Z,9.762819
2023-01-07T01:36:17.512Z,9.762819
2023-01-07T01:37:17.507Z,9.762819
2023-01-07T01:38:17.515Z,9.762819
2023-01-07T01:39:17.456Z,9.762819
2023-01-07T01:40:17.534Z,9.762893
2023-01-07T01:41:17.476Z,9.762815
2023-01-07T01:42:17.444Z,9.762664
2023-01-07T01:43:17.429Z,9.762656
2023-01-07T01:44:17.403Z,9.762598
2023-01-07T01:45:17.406Z,9.762789
2023-01-07T01:46:17.451Z,9.762628
2023-01-07T01:47:17.372Z,9.762745
2023-01-07T01:48:17.380Z,9.762683
2023-01-07T01:49:17.401Z,9.762839
2023-01-07T01:50:17.362Z,9.762776
2023-01-07T01:51:17.353Z,9.762746
2023-01-07T01:52:17.323Z,9.762403
2023-01-07T01:53:17.312Z,9.762630
2023-01-07T01:54:17.323Z,9.762591
2023-01-07T01:55:17.325Z,9.762717
2023-01-07T01:56:17.351Z,9.762853
2023-01-07T01:57:17.303Z,9.762601
2023-01-07T01:58:17.292Z,9.762474
2023-01-07T01:59:17.246Z,9.762516
2023-01-07T02:00:17.236Z,9.762677
2023-01-07T02:01:17.461Z,9.762780
2023-01-07T02:02:17.341Z,9.762731
2023-01-07T02:03:17.230Z,9.762707
2023-01-07T02:04:17.232Z,9.762917
2023-01-07T02:05:17.208Z,9.762840
2023-01-07T02:06:17.218Z,9.762918
2023-01-07T02:07:17.169Z,9.762810
2023-01-07T02:08:17.199Z,9.762609
2023-01-07T02:09:17.212Z,9.762604
2023-01-07T02:10:17.131Z,9.762434
2023-01-07T02:11:17.160Z,9.762597
2023-01-07T02:12:17.219Z,9.762670
2023-01-07T02:13:17.156Z,9.762514
2023-01-07T02:14:17.105Z,9.762252
2023-01-07T02:15:17.125Z,9.762478
2023-01-07T02:16:17.146Z,9.762525
2023-01-07T02:17:17.098Z,9.762730
2023-01-07T02:18:17.104Z,9.762784
2023-01-07T02:19:18.168Z,9.762688
2023-01-07T02:20:17.046Z,9.762464
2023-01-07T02:21:17.051Z,9.762403
2023-01-07T02:22:17.052Z,9.762673
2023-01-07T02:23:17.015Z,9.763391
2023-01-07T02:24:17.025Z,9.762819
2023-01-07T02:25:17.033Z,9.762559
2023-01-07T02:26:17.982Z,9.762860
2023-01-07T02:27:17.059Z,9.762785
2023-01-07T02:28:17.018Z,9.762404
2023-01-07T02:29:16.976Z,9.762437
2023-01-07T02:30:16.968Z,9.762613
2023-01-07T02:31:17.038Z,9.762794
2023-01-07T02:32:16.924Z,9.763088
2023-01-07T02:33:16.926Z,9.763011
2023-01-07T02:34:16.985Z,9.762944
2023-01-07T02:35:16.935Z,9.762530
2023-01-07T02:36:16.889Z,9.762517
2023-01-07T02:37:16.933Z,9.762926
2023-01-07T02:38:16.909Z,9.762790
2023-01-07T02:39:16.859Z,9.762691
2023-01-07T02:40:16.859Z,9.763120
2023-01-07T02:41:16.849Z,9.762489
2023-01-07T02:42:16.822Z,9.762155
2023-01-07T02:43:16.828Z,9.762155
2023-01-07T02:44:16.899Z,9.762155
2023-01-07T02:45:16.780Z,9.762354
2023-01-07T02:46:16.829Z,9.762654
2023-01-07T02:47:16.792Z,9.762774
2023-01-07T02:48:16.770Z,9.762776
2023-01-07T02:49:16.773Z,9.762794
2023-01-07T02:50:16.745Z,9.762708
2023-01-07T02:51:16.752Z,9.762800
2023-01-07T02:52:16.751Z,9.762749
2023-01-07T02:53:16.683Z,9.762815
2023-01-07T02:54:16.739Z,9.762680
2023-01-07T02:55:16.726Z,9.762858
2023-01-07T02:56:16.712Z,9.763046
2023-01-07T02:57:16.675Z,9.762920
2023-01-07T02:58:16.661Z,9.762805
2023-01-07T02:59:16.666Z,9.762842
2023-01-07T03:00:16.727Z,9.762978
2023-01-07T03:01:16.761Z,9.762911
2023-01-07T03:02:16.617Z,9.762797
2023-01-07T03:03:16.643Z,9.762682
2023-01-07T03:04:16.621Z,9.762743
2023-01-07T03:05:16.613Z,9.762715
2023-01-07T03:06:16.616Z,9.762778
2023-01-07T03:07:16.581Z,9.762844
2023-01-07T03:08:16.590Z,9.762737
2023-01-07T03:09:16.591Z,9.762679
2023-01-07T03:10:16.551Z,9.762643
2023-01-07T03:11:16.574Z,9.762773
2023-01-07T03:12:16.516Z,9.762778
2023-01-07T03:13:16.535Z,9.762794
2023-01-07T03:14:16.486Z,9.762922
2023-01-07T03:15:16.517Z,9.762793
2023-01-07T03:16:16.558Z,9.762747
2023-01-07T03:17:16.476Z,9.762796
2023-01-07T03:18:16.451Z,9.762683
2023-01-07T03:19:16.472Z,9.762685
2023-01-07T03:20:16.439Z,9.762656
2023-01-07T03:21:16.493Z,9.762655
2023-01-07T03:22:16.385Z,9.762767
2023-01-07T03:23:16.428Z,9.762764
2023-01-07T03:24:16.384Z,9.762676
2023-01-07T03:25:16.376Z,9.762785
2023-01-07T03:26:16.396Z,9.762749
2023-01-07T03:27:16.362Z,9.762731
2023-01-07T03:28:16.347Z,9.762731
2023-01-07T03:29:16.325Z,9.762754
2023-01-07T03:30:16.340Z,9.762706
2023-01-07T03:31:16.335Z,9.762801
2023-01-07T03:32:16.412Z,9.762815
2023-01-07T03:33:17.286Z,9.762620
2023-01-07T03:34:16.330Z,9.762739
2023-01-07T03:35:16.319Z,9.762535
2023-01-07T03:36:16.289Z,9.762641
2023-01-07T03:37:16.265Z,9.762762
2023-01-07T03:38:16.278Z,9.762671
2023-01-07T03:39:16.301Z,9.762639
2023-01-07T03:40:16.238Z,9.762676
2023-01-07T03:41:16.255Z,9.762762
2023-01-07T03:42:16.197Z,9.762699
2023-01-07T03:43:16.223Z,9.762727
2023-01-07T03:44:16.202Z,9.762779
2023-01-07T03:45:16.177Z,9.762809
2023-01-07T03:46:16.190Z,9.762879
2023-01-07T03:47:16.159Z,9.762701
2023-01-07T03:48:16.241Z,9.762823
2023-01-07T03:49:16.168Z,9.762937
2023-01-07T03:50:16.155Z,9.762776
2023-01-07T03:51:16.137Z,9.762841
2023-01-07T03:52:16.112Z,9.762701
2023-01-07T03:53:16.130Z,9.762795
2023-01-07T03:54:16.141Z,9.762749
2023-01-07T03:55:16.116Z,9.762722
2023-01-07T03:56:16.085Z,9.762804
2023-01-07T03:57:16.088Z,9.762836
2023-01-07T03:58:16.072Z,9.762839
2023-01-07T03:59:16.032Z,9.762712
2023-01-07T04:00:16.045Z,9.762716
2023-01-07T04:01:16.082Z,9.762932
2023-01-07T04:02:16.045Z,9.762930
2023-01-07T04:03:15.971Z,9.762115
2023-01-07T04:04:16.082Z,9.762598
2023-01-07T04:05:15.996Z,9.762908
2023-01-07T04:06:16.001Z,9.760750
2023-01-07T04:07:15.987Z,9.762165
2023-01-07T04:08:15.972Z,9.762708
2023-01-07T04:09:16.012Z,9.765036
2023-01-07T04:10:15.970Z,9.764714
2023-01-07T04:11:15.944Z,9.763022
2023-01-07T04:12:15.947Z,9.762909
2023-01-07T04:13:15.938Z,9.763032
2023-01-07T04:14:15.932Z,9.763289
2023-01-07T04:15:15.943Z,9.763124
2023-01-07T04:16:15.900Z,9.762718
2023-01-07T04:17:15.861Z,9.762614
2023-01-07T04:18:15.850Z,9.762993
2023-01-07T04:19:15.838Z,9.762816
2023-01-07T04:20:15.842Z,9.762983
2023-01-07T04:21:15.824Z,9.763255
2023-01-07T04:22:15.817Z,9.762666
2023-01-07T04:23:15.814Z,9.762649
2023-01-07T04:24:15.783Z,9.762801
2023-01-07T04:25:15.788Z,9.762918
2023-01-07T04:26:15.745Z,9.762810
2023-01-07T04:27:15.760Z,9.762845
2023-01-07T04:28:15.752Z,9.762888
2023-01-07T04:29:15.729Z,9.762748
2023-01-07T04:30:15.726Z,9.762595
2023-01-07T04:31:15.823Z,9.762705
2023-01-07T04:32:15.692Z,9.762817
2023-01-07T04:33:15.752Z,9.762852
2023-01-07T04:34:15.683Z,9.762971
2023-01-07T04:35:15.669Z,9.762914
2023-01-07T04:36:15.759Z,9.762853
2023-01-07T04:37:15.639Z,9.762786
2023-01-07T04:38:16.714Z,9.761633
2023-01-07T04:39:15.647Z,9.762172
2023-01-07T04:40:15.655Z,9.762860
2023-01-07T04:41:15.605Z,9.762486
2023-01-07T04:42:15.642Z,9.762711
2023-01-07T04:43:15.635Z,9.762691
2023-01-07T04:44:15.600Z,9.761426
2023-01-07T04:45:15.579Z,9.762728
2023-01-07T04:46:15.690Z,9.762836
2023-01-07T04:47:15.540Z,9.762514
2023-01-07T04:48:15.553Z,9.762595
2023-01-07T04:49:15.567Z,9.762813
2023-01-07T04:50:15.618Z,9.762899
2023-01-07T04:51:15.512Z,9.762727
2023-01-07T04:52:15.605Z,9.762856
2023-01-07T04:53:15.497Z,9.762693
2023-01-07T04:54:15.524Z,9.762649
2023-01-07T04:55:15.502Z,9.762565
2023-01-07T04:56:15.484Z,9.762577
2023-01-07T04:57:15.434Z,9.762819
2023-01-07T04:58:15.446Z,9.762800
2023-01-07T04:59:15.463Z,9.762846
2023-01-07T05:00:15.460Z,9.762920
2023-01-07T05:01:15.525Z,9.762734
2023-01-07T05:02:15.508Z,9.762752
2023-01-07T05:03:15.399Z,9.762522
2023-01-07T05:04:15.518Z,9.762557
2023-01-07T05:05:15.393Z,9.762754
2023-01-07T05:06:15.381Z,9.762581
2023-01-07T05:07:15.411Z,9.762402
2023-01-07T05:08:15.487Z,9.762516
2023-01-07T05:09:15.395Z,9.762964
2023-01-07T05:10:15.410Z,9.762505
2023-01-07T05:11:15.343Z,9.762447
2023-01-07T05:12:15.283Z,9.762754
2023-01-07T05:13:15.304Z,9.762714
2023-01-07T05:14:15.314Z,9.762823
2023-01-07T05:15:15.294Z,9.762836
2023-01-07T05:16:15.298Z,9.762628
2023-01-07T05:17:15.292Z,9.762842
2023-01-07T05:18:15.240Z,9.762840
2023-01-07T05:19:15.319Z,9.762795
2023-01-07T05:20:15.256Z,9.762748
2023-01-07T05:21:15.230Z,9.762650
2023-01-07T05:22:15.217Z,9.762547
2023-01-07T05:23:15.189Z,9.762484
2023-01-07T05:24:15.289Z,9.763125
2023-01-07T05:25:15.167Z,9.763505
2023-01-07T05:26:15.185Z,9.762886
2023-01-07T05:27:15.186Z,9.762668
2023-01-07T05:28:15.132Z,9.762905
2023-01-07T05:29:15.146Z,9.762559
2023-01-07T05:30:15.137Z,9.762670
2023-01-07T05:31:15.142Z,9.762820
2023-01-07T05:32:15.135Z,9.762603
2023-01-07T05:33:15.087Z,9.762916
2023-01-07T05:34:15.056Z,9.763047
2023-01-07T05:35:15.065Z,9.763000
2023-01-07T05:36:15.059Z,9.762784
2023-01-07T05:37:14.991Z,9.762657
2023-01-07T05:38:15.015Z,9.762821
2023-01-07T05:39:15.000Z,9.762533
2023-01-07T05:40:15.089Z,9.762719
2023-01-07T05:41:15.035Z,9.762576
2023-01-07T05:42:14.993Z,9.762777
2023-01-07T05:43:15.010Z,9.762712
2023-01-07T05:44:15.010Z,9.762673
2023-01-07T05:45:14.951Z,9.762801
2023-01-07T05:46:15.000Z,9.762875
2023-01-07T05:47:14.967Z,9.762688
2023-01-07T05:48:14.981Z,9.763058
2023-01-07T05:49:14.948Z,9.762753
2023-01-07T05:50:14.942Z,9.762623
2023-01-07T05:51:14.930Z,9.762770
2023-01-07T05:52:14.901Z,9.762767
2023-01-07T05:53:14.915Z,9.762841
2023-01-07T05:54:14.872Z,9.762700
2023-01-07T05:55:14.864Z,9.762764
2023-01-07T05:56:14.965Z,9.762824
2023-01-07T05:57:14.864Z,9.761969
2023-01-07T05:58:14.868Z,9.761744
2023-01-07T05:59:14.843Z,9.762663
2023-01-07T06:00:14.838Z,9.763103
2023-01-07T06:01:14.893Z,9.762971
2023-01-07T06:02:14.830Z,9.762790
2023-01-07T06:03:14.889Z,9.762547
2023-01-07T06:04:14.736Z,9.762586
2023-01-07T06:05:14.733Z,9.762746
2023-01-07T06:06:14.785Z,9.762670
2023-01-07T06:07:14.748Z,9.762627
2023-01-07T06:08:14.761Z,9.762703
2023-01-07T06:09:14.719Z,9.762727
2023-01-07T06:10:15.734Z,9.762962
2023-01-07T06:11:14.736Z,9.762762
2023-01-07T06:12:14.742Z,9.762676
2023-01-07T06:13:14.693Z,9.762725
2023-01-07T06:14:14.676Z,9.762609
2023-01-07T06:15:14.671Z,9.762674
2023-01-07T06:16:14.741Z,9.762758
2023-01-07T06:17:14.656Z,9.762796
2023-01-07T06:18:14.639Z,9.762650
2023-01-07T06:19:14.640Z,9.762719
2023-01-07T06:20:14.686Z,9.762666
2023-01-07T06:21:14.593Z,9.762541
2023-01-07T06:22:14.633Z,9.762242
2023-01-07T06:23:14.588Z,9.762586
2023-01-07T06:24:14.580Z,9.762749
2023-01-07T06:25:14.557Z,9.762835
2023-01-07T06:26:14.582Z,9.762847
2023-01-07T06:27:15.545Z,9.762865
2023-01-07T06:28:14.634Z,9.762682
2023-01-07T06:29:14.537Z,9.762636
2023-01-07T06:30:14.550Z,9.762745
2023-01-07T06:31:14.608Z,9.762738
2023-01-07T06:32:14.500Z,9.762723
2023-01-07T06:33:14.465Z,9.762756
2023-01-07T06:34:14.473Z,9.762750
2023-01-07T06:35:14.477Z,9.762835
2023-01-07T06:36:14.530Z,9.762829
2023-01-07T06:37:14.445Z,9.762873
2023-01-07T06:38:14.459Z,9.762863
2023-01-07T06:39:14.454Z,9.762833
2023-01-07T06:40:14.417Z,9.762777
2023-01-07T06:41:16.743Z,9.762808
2023-01-07T06:42:14.431Z,9.762665
2023-01-07T06:43:14.411Z,9.762897
2023-01-07T06:44:14.474Z,9.762965
2023-01-07T06:45:14.331Z,9.762794
2023-01-07T06:46:14.426Z,9.762823
2023-01-07T06:47:14.354Z,9.762861
2023-01-07T06:48:14.328Z,9.762868
2023-01-07T06:49:14.340Z,9.763003
2023-01-07T06:50:14.303Z,9.763003
2023-01-07T06:51:14.285Z,9.763003
2023-01-07T06:52:14.245Z,9.763152
2023-01-07T06:53:14.259Z,9.763064
2023-01-07T06:54:14.253Z,9.762909
2023-01-07T06:55:14.239Z,9.762912
2023-01-07T06:56:14.275Z,9.763028
2023-01-07T06:57:14.237Z,9.762950
2023-01-07T06:58:14.181Z,9.763052
2023-01-07T06:59:14.187Z,9.762968
2023-01-07T07:00:14.269Z,9.763047
2023-01-07T07:01:14.302Z,9.763093
2023-01-07T07:02:14.263Z,9.762889
2023-01-07T07:03:14.236Z,9.762938
2023-01-07T07:04:14.156Z,9.762913
2023-01-07T07:05:14.145Z,9.762818
2023-01-07T07:06:14.159Z,9.762774
2023-01-07T07:07:14.146Z,9.763038
2023-01-07T07:08:14.111Z,9.762956
2023-01-07T07:09:14.061Z,9.762956
2023-01-07T07:10:14.090Z,9.762956
2023-01-07T07:11:14.100Z,9.762861
2023-01-07T07:12:14.065Z,9.763036
2023-01-07T07:13:14.075Z,9.763023
2023-01-07T07:14:14.064Z,9.762931
2023-01-07T07:15:14.034Z,9.762933
2023-01-07T07:16:14.181Z,9.762889
2023-01-07T07:17:14.037Z,9.762947
2023-01-07T07:18:14.033Z,9.763045
2023-01-07T07:19:13.993Z,9.762973
2023-01-07T07:20:13.976Z,9.762783
2023-01-07T07:21:13.966Z,9.763001
2023-01-07T07:22:13.996Z,9.762886
2023-01-07T07:23:13.978Z,9.763037
2023-01-07T07:24:13.975Z,9.763002
2023-01-07T07:25:13.918Z,9.763017
2023-01-07T07:26:13.957Z,9.763028
2023-01-07T07:27:13.918Z,9.762940
2023-01-07T07:28:13.940Z,9.763041
2023-01-07T07:29:13.887Z,9.763000
2023-01-07T07:30:13.933Z,9.762815
2023-01-07T07:31:13.940Z,9.762510
2023-01-07T07:32:13.949Z,9.762696
2023-01-07T07:33:13.868Z,9.762840
2023-01-07T07:34:13.852Z,9.762619
2023-01-07T07:35:13.814Z,9.762693
2023-01-07T07:36:13.868Z,9.763076
2023-01-07T07:37:13.837Z,9.763444
2023-01-07T07:38:13.809Z,9.763325
2023-01-07T07:39:13.790Z,9.762905
2023-01-07T07:40:13.791Z,9.762827
2023-01-07T07:41:13.785Z,9.762710
2023-01-07T07:42:13.776Z,9.762693
2023-01-07T07:43:13.764Z,9.762810
2023-01-07T07:44:13.739Z,9.762750
2023-01-07T07:45:13.800Z,9.762740
2023-01-07T07:46:13.785Z,9.762571
2023-01-07T07:47:13.723Z,9.763220
2023-01-07T07:48:13.775Z,9.763004
2023-01-07T07:49:13.701Z,9.762550
2023-01-07T07:50:13.734Z,9.762858
2023-01-07T07:51:13.696Z,9.762795
2023-01-07T07:52:13.633Z,9.762901
2023-01-07T07:53:13.655Z,9.763078
2023-01-07T07:54:13.650Z,9.762712
2023-01-07T07:55:20.453Z,9.762802
2023-01-07T07:56:14.703Z,9.762856
2023-01-07T07:57:13.639Z,9.762733
2023-01-07T07:58:13.604Z,9.762723
2023-01-07T07:59:13.617Z,9.762663
2023-01-07T08:00:13.593Z,9.762938
2023-01-07T08:01:13.660Z,9.762650
2023-01-07T08:02:14.576Z,9.762767
2023-01-07T08:03:13.636Z,9.762603
2023-01-07T08:04:13.638Z,9.762781
2023-01-07T08:05:13.537Z,9.762748
2023-01-07T08:06:13.542Z,9.762654
2023-01-07T08:07:13.531Z,9.762710
2023-01-07T08:08:14.509Z,9.762381
2023-01-07T08:09:13.483Z,9.762744
2023-01-07T08:10:13.483Z,9.762382
2023-01-07T08:11:13.491Z,9.763135
2023-01-07T08:12:13.468Z,9.762708
2023-01-07T08:13:13.543Z,9.762614
2023-01-07T08:14:13.459Z,9.762537
2023-01-07T08:15:13.439Z,9.762950
2023-01-07T08:16:13.461Z,9.762646
2023-01-07T08:17:13.411Z,9.762677
2023-01-07T08:18:13.461Z,9.762637
2023-01-07T08:19:13.444Z,9.762885
2023-01-07T08:20:13.467Z,9.762803
2023-01-07T08:21:13.445Z,9.762729
2023-01-07T08:22:13.378Z,9.762697
2023-01-07T08:23:13.360Z,9.762818
2023-01-07T08:24:13.374Z,9.762818
2023-01-07T08:25:13.309Z,9.762818
2023-01-07T08:26:13.355Z,9.762818
2023-01-07T08:27:13.321Z,9.762869
2023-01-07T08:28:13.309Z,9.762869
2023-01-07T08:29:13.286Z,9.762869
2023-01-07T08:30:13.300Z,9.763269
2023-01-07T08:31:13.369Z,9.763402
2023-01-07T08:32:13.269Z,9.762278
2023-01-07T08:33:13.307Z,9.762484
2023-01-07T08:34:13.220Z,9.762850
2023-01-07T08:35:13.246Z,9.762764
2023-01-07T08:36:23.694Z,9.762827
2023-01-07T08:37:15.238Z,9.762827
2023-01-07T08:38:13.204Z,9.762740
2023-01-07T08:39:13.187Z,9.762825
2023-01-07T08:40:13.166Z,9.763095
2023-01-07T08:41:13.210Z,9.763084
2023-01-07T08:42:13.148Z,9.762821
2023-01-07T08:43:13.170Z,9.762912
2023-01-07T08:44:13.141Z,9.762929
2023-01-07T08:45:13.134Z,9.762940
2023-01-07T08:46:13.264Z,9.762946
2023-01-07T08:47:13.133Z,9.762977
2023-01-07T08:48:13.095Z,9.762664
2023-01-07T08:49:13.087Z,9.762816
2023-01-07T08:50:13.091Z,9.763041
2023-01-07T08:51:13.076Z,9.762691
2023-01-07T08:52:13.146Z,9.762765
2023-01-07T08:53:13.060Z,9.762835
2023-01-07T08:54:13.076Z,9.762879
2023-01-07T08:55:13.031Z,9.762742
2023-01-07T08:56:13.056Z,9.762709
2023-01-07T08:57:13.053Z,9.762766
2023-01-07T08:58:13.005Z,9.762768
2023-01-07T08:59:13.380Z,9.762814
2023-01-07T09:00:47.016Z,9.762821
2023-01-07T09:01:13.140Z,9.762729
2023-01-07T09:02:13.125Z,9.762770
2023-01-07T09:03:13.547Z,9.762728
2023-01-07T09:04:12.918Z,9.762766
2023-01-07T09:05:12.968Z,9.762845
2023-01-07T15:03:26.977Z,9.762602
2023-01-07T15:04:27.016Z,9.762733
2023-01-07T15:05:26.971Z,9.762620
2023-01-07T15:06:26.850Z,9.762517
2023-01-07T15:07:26.837Z,9.762852
2023-01-07T15:08:26.907Z,9.762740
2023-01-07T15:09:26.844Z,9.762733
2023-01-07T15:10:26.845Z,9.762750
2023-01-07T15:11:26.874Z,9.762956
2023-01-07T15:12:26.783Z,9.762763
2023-01-07T15:13:26.796Z,9.762677
2023-01-07T15:14:26.812Z,9.762690
2023-01-07T15:15:26.875Z,9.762603
2023-01-07T15:16:26.968Z,9.762881
2023-01-07T15:17:26.746Z,9.762901
2023-01-07T15:18:26.785Z,9.762817
2023-01-07T15:19:26.753Z,9.762733
2023-01-07T15:20:26.732Z,9.762776
2023-01-07T15:21:26.708Z,9.762780
2023-01-07T15:22:26.717Z,9.762865
2023-01-07T15:23:26.704Z,9.762845
2023-01-07T15:24:26.673Z,9.762862
2023-01-07T15:25:26.791Z,9.762852
2023-01-07T15:26:26.670Z,9.762902
2023-01-07T15:27:28.392Z,9.762885
2023-01-07T15:28:26.719Z,9.762809
2023-01-07T15:29:26.640Z,9.762883
2023-01-07T15:30:26.629Z,9.762631
2023-01-07T15:31:26.761Z,9.762718
2023-01-07T15:32:26.629Z,9.762620
2023-01-07T15:33:26.590Z,9.762773
2023-01-07T15:34:26.610Z,9.762711
2023-01-07T15:35:26.570Z,9.762724
2023-01-07T15:36:26.560Z,9.762726
2023-01-07T15:37:26.537Z,9.762782
2023-01-07T15:38:26.583Z,9.762779
2023-01-07T15:39:26.557Z,9.762770
2023-01-07T15:40:26.552Z,9.762677
2023-01-07T15:41:26.534Z,9.762795
2023-01-07T15:42:26.496Z,9.762669
2023-01-07T15:43:26.511Z,9.762835
2023-01-07T15:44:28.999Z,9.762594
2023-01-07T15:45:26.479Z,9.762841
2023-01-07T15:46:26.512Z,9.762830
2023-01-07T15:47:26.536Z,9.762875
2023-01-07T15:48:26.433Z,9.762987
2023-01-07T15:49:26.468Z,9.762945
2023-01-07T15:50:26.421Z,9.762771
2023-01-07T15:51:26.387Z,9.762733
2023-01-07T15:52:26.473Z,9.762696
2023-01-07T15:53:26.867Z,9.762678
2023-01-07T15:54:26.361Z,9.762542
2023-01-07T15:55:26.363Z,9.762632
2023-01-07T15:56:26.378Z,9.762294
2023-01-07T15:57:26.414Z,9.763219
2023-01-07T15:58:26.361Z,9.762777
2023-01-07T15:59:26.369Z,9.762856
2023-01-07T16:00:26.326Z,9.763875
2023-01-07T16:01:26.449Z,9.767557
2023-01-07T16:02:26.338Z,9.767223
2023-01-07T16:03:26.382Z,9.767223
2023-01-07T16:04:26.338Z,9.763145
2023-01-07T16:05:26.302Z,9.762383
2023-01-07T16:06:26.237Z,9.762787
2023-01-07T16:07:26.196Z,9.762018
2023-01-07T16:08:26.224Z,9.762997
2023-01-07T16:09:26.183Z,9.768334
2023-01-07T16:10:26.174Z,9.766249
2023-01-07T16:11:26.183Z,9.766562
2023-01-07T16:12:26.173Z,9.766562
2023-01-07T16:13:26.205Z,9.766562
2023-01-07T16:14:26.167Z,9.766562
2023-01-07T16:15:26.154Z,9.766562
2023-01-07T16:16:26.144Z,9.766562
2023-01-07T16:17:26.114Z,9.766562
2023-01-07T16:18:26.109Z,9.766562
2023-01-07T16:19:26.184Z,9.766562
2023-01-07T16:20:27.628Z,9.766562
2023-01-07T16:21:26.065Z,9.766562
2023-01-07T16:22:26.043Z,9.766562
2023-01-07T16:23:26.056Z,9.766562
2023-01-07T16:24:26.024Z,9.766562
2023-01-07T16:25:26.008Z,9.766562
2023-01-07T16:26:25.991Z,9.766562
2023-01-07T16:27:25.988Z,9.766562
2023-01-07T16:28:25.986Z,9.766562
2023-01-07T16:29:25.977Z,9.766562
2023-01-07T16:30:25.974Z,9.766562
2023-01-07T16:31:26.008Z,9.762850
2023-01-07T16:32:25.942Z,9.762897
2023-01-07T16:33:26.025Z,9.763314
2023-01-07T16:34:25.924Z,9.763045
2023-01-07T16:35:25.975Z,9.762933
2023-01-07T16:36:25.899Z,9.763206
2023-01-07T16:37:25.904Z,9.763264
2023-01-07T16:38:25.911Z,9.763264
2023-01-07T16:39:25.869Z,9.763264
2023-01-07T16:40:25.862Z,9.763264
2023-01-07T16:41:25.842Z,9.763264
2023-01-07T16:42:25.833Z,9.763264
2023-01-07T16:43:25.880Z,9.763264
2023-01-07T16:44:25.808Z,9.763264
2023-01-07T16:45:25.788Z,9.763264
2023-01-07T16:46:25.816Z,9.763264
2023-01-07T16:47:25.769Z,9.763264
2023-01-07T16:48:25.795Z,9.763264
2023-01-07T16:49:25.755Z,9.763264
2023-01-07T16:50:25.745Z,9.763264
2023-01-07T16:51:25.927Z,9.762511
2023-01-07T16:52:25.880Z,9.762461
2023-01-07T16:53:25.797Z,9.762486
2023-01-07T16:54:25.764Z,9.762935
2023-01-07T16:55:25.735Z,9.762748
2023-01-07T16:56:25.713Z,9.762800
2023-01-07T16:57:25.698Z,9.762638
2023-01-07T16:58:25.747Z,9.762239
2023-01-07T16:59:25.723Z,9.762140
2023-01-07T17:00:25.762Z,9.762243
2023-01-07T17:01:25.740Z,9.762210
2023-01-07T17:02:25.804Z,9.762210
2023-01-07T17:03:25.702Z,9.762035
2023-01-07T17:04:25.749Z,9.762730
2023-01-07T17:05:25.809Z,9.762687
2023-01-07T17:06:25.802Z,9.762677
2023-01-07T17:07:25.676Z,9.762806
2023-01-07T17:08:25.720Z,9.762864
2023-01-07T17:09:25.602Z,9.762875
2023-01-07T17:10:25.609Z,9.762787
2023-01-07T17:11:25.572Z,9.762788
2023-01-07T17:12:25.608Z,9.762806
2023-01-07T17:13:25.614Z,9.762819
2023-01-07T17:14:25.636Z,9.762824
2023-01-07T17:15:25.549Z,9.762790
2023-01-07T17:16:25.629Z,9.762861
2023-01-07T17:17:26.508Z,9.762832
2023-01-07T17:18:25.500Z,9.762741
2023-01-07T17:19:25.509Z,9.762812
2023-01-07T17:20:25.498Z,9.762738
2023-01-07T17:21:25.482Z,9.762792
2023-01-07T17:22:25.477Z,9.762683
2023-01-07T17:23:25.558Z,9.762732
2023-01-07T17:24:25.451Z,9.763005
2023-01-07T17:25:25.445Z,9.762976
2023-01-07T17:26:25.416Z,9.762718
2023-01-07T17:27:25.422Z,9.762815
2023-01-07T17:28:25.707Z,9.762769
2023-01-07T17:29:26.421Z,9.762783
2023-01-07T17:30:25.360Z,9.762887
2023-01-07T17:31:25.416Z,9.762774
2023-01-07T17:32:25.353Z,9.762706
2023-01-07T17:33:25.366Z,9.762889
2023-01-07T17:34:25.384Z,9.762800
2023-01-07T17:35:26.360Z,9.762787
2023-01-07T17:36:25.294Z,9.762777
2023-01-07T17:37:25.304Z,9.762822
2023-01-07T17:38:25.306Z,9.762795
2023-01-07T17:39:25.347Z,9.762868
2023-01-07T17:40:25.267Z,9.762916
2023-01-07T17:41:25.266Z,9.762773